KRVS

Richard Lloyd Jones Jr Airport

Tulsa, Oklahoma, USA
KRVS 181120Z 1812/1912 17008KT P6SM BKN015 FM181500 17010KT P6SM BKN025 FM181700 17012KT P6SM SCT050 FM190100 16006KT P6SM BKN250 FM190900 17006KT P6SM BKN025
Issued Valid From Valid To
Jun-18 @ 11:20 UTC
(2 hours ago)
Jun-18 @ 12:00 UTC
(an hour ago)
Jun-19 @ 12:00 UTC
(in 23 hours)
Jun-18 @ 12:00 to Jun-18 @ 15:00
KRVS 181120Z 1812/1912 17008KT P6SM BKN015
Wind Visibility Clouds
170° at 8 knots Greater than 6 miles
  • Broken at 1,500' AGL
From Jun-18 @ 15:00 to Jun-18 @ 17:00
FM181500 17010KT P6SM BKN025
Wind Visibility Clouds
170° at 10 knots Greater than 6 miles
  • Broken at 2,500' AGL
From Jun-18 @ 17:00 to Jun-19 @ 01:00
FM181700 17012KT P6SM SCT050
Wind Visibility Clouds
170° at 12 knots Greater than 6 miles
  • Scattered at 5,000' AGL
From Jun-19 @ 01:00 to Jun-19 @ 09:00
FM190100 16006KT P6SM BKN250
Wind Visibility Clouds
160° at 6 knots Greater than 6 miles
  • Broken at 25,000' AGL
From Jun-19 @ 09:00 to Jun-19 @ 12:00
FM190900 17006KT P6SM BKN025
Wind Visibility Clouds
170° at 6 knots Greater than 6 miles
  • Broken at 2,500' AGL
KRVS 181120Z 1812/1912 17008KT P6SM BKN015 FM181500 17010KT P6SM BKN025 FM181700 17012KT P6SM SCT050 FM190100 16006KT P6SM BKN250 FM190900 17006KT P6SM BKN025
Issued Jun-18 @ 11:20 UTC
(2 hours ago)
Valid From Jun-18 @ 12:00 UTC
(an hour ago)
Valid To Jun-19 @ 12:00 UTC
(in 23 hours)
Jun-18 @ 12:00 - Jun-18 @ 15:00
Wind Visibility
170° at 8 knots Greater than 6 miles
Clouds
  • Broken at 1,500' AGL
From Jun-18 @ 15:00 - Jun-18 @ 17:00
Wind Visibility
170° at 10 knots Greater than 6 miles
Clouds
  • Broken at 2,500' AGL
From Jun-18 @ 17:00 - Jun-19 @ 01:00
Wind Visibility
170° at 12 knots Greater than 6 miles
Clouds
  • Scattered at 5,000' AGL
From Jun-19 @ 01:00 - Jun-19 @ 09:00
Wind Visibility
160° at 6 knots Greater than 6 miles
Clouds
  • Broken at 25,000' AGL
From Jun-19 @ 09:00 - Jun-19 @ 12:00
Wind Visibility
170° at 6 knots Greater than 6 miles
Clouds
  • Broken at 2,500' AGL